Time;durP1;ratioP1;P1;durP2;ratioP2;P2;SDS_P1;SDS_P2;PMS_P1;PMS_P2;Temp;Humidity;BMP_temperature;BMP_pressure;BME280_temperature;BME280_humidity;BME280_pressure;Samples;Min_cycle;Max_cycle;Signal;HPM_P1;HPM_P2
2023/11/14 00:01:49;;;;;;;27.73;5.65;;;;;;;11.52;95.14;99633.31;4977876;28;20464;-80
2023/11/14 00:04:16;;;;;;;22.40;5.13;;;;;;;11.53;95.15;99648.03;4978317;28;20082;-80
2023/11/14 00:06:42;;;;;;;25.95;5.93;;;;;;;11.55;94.89;99640.00;4978996;28;20589;-80
2023/11/14 00:09:09;;;;;;;25.20;7.82;;;;;;;11.56;95.23;99631.94;4978036;28;20046;-80
2023/11/14 00:11:36;;;;;;;24.25;5.50;;;;;;;11.56;95.31;99628.50;4978334;28;20491;-80
2023/11/14 00:14:03;;;;;;;32.50;5.68;;;;;;;11.59;95.07;99634.19;4982014;28;20055;-81
2023/11/14 00:16:31;;;;;;;27.30;6.68;;;;;;;11.51;95.12;99647.41;4978551;28;20081;-80
2023/11/14 00:18:59;;;;;;;26.40;6.25;;;;;;;11.54;95.06;99636.56;4985145;28;20066;-80
2023/11/14 00:21:26;;;;;;;27.08;5.60;;;;;;;11.64;94.58;99642.31;4983789;28;20051;-82
2023/11/14 00:23:52;;;;;;;22.45;5.57;;;;;;;11.65;94.47;99632.63;4984618;28;20113;-82
2023/11/14 00:26:19;;;;;;;29.63;5.30;;;;;;;11.63;94.44;99621.53;4984693;28;20089;-81
2023/11/14 00:28:45;;;;;;;24.85;6.50;;;;;;;11.63;94.32;99647.75;4983809;28;20110;-82
2023/11/14 00:31:12;;;;;;;28.05;6.40;;;;;;;11.63;94.57;99648.53;4984321;28;20362;-81
2023/11/14 00:33:39;;;;;;;37.42;5.72;;;;;;;11.58;94.52;99629.94;4983453;28;20051;-81
2023/11/14 00:36:07;;;;;;;25.13;5.65;;;;;;;11.66;94.35;99641.31;4982803;28;20129;-81
2023/11/14 00:38:34;;;;;;;23.10;5.70;;;;;;;11.69;93.99;99630.47;4983276;28;20078;-81
2023/11/14 00:41:01;;;;;;;25.35;5.68;;;;;;;11.71;93.79;99639.75;4983305;28;20046;-81
2023/11/14 00:43:28;;;;;;;26.13;5.93;;;;;;;11.68;93.60;99626.22;4984384;28;20082;-79
2023/11/14 00:45:54;;;;;;;22.88;5.38;;;;;;;11.76;93.24;99636.56;4985864;28;20133;-80
2023/11/14 00:48:21;;;;;;;25.38;5.68;;;;;;;11.79;93.04;99659.81;4984941;28;20055;-80
2023/11/14 00:50:48;;;;;;;30.05;6.43;;;;;;;11.73;93.19;99661.34;4983931;28;20070;-80
2023/11/14 00:53:16;;;;;;;28.73;6.43;;;;;;;11.75;93.07;99645.44;4983497;28;20114;-80
2023/11/14 00:55:43;;;;;;;24.33;5.60;;;;;;;11.66;93.49;99633.44;4982835;28;20054;-80
2023/11/14 00:58:11;;;;;;;26.13;6.30;;;;;;;11.68;93.44;99618.34;4983376;28;20086;-80
2023/11/14 01:00:37;;;;;;;25.60;7.45;;;;;;;11.71;93.18;99638.94;4983684;28;20051;-80
2023/11/14 01:03:04;;;;;;;32.15;6.18;;;;;;;11.69;93.47;99643.56;4984523;28;20110;-80
2023/11/14 01:05:31;;;;;;;25.27;6.72;;;;;;;11.70;93.28;99655.66;4984694;28;20080;-81
2023/11/14 01:07:57;;;;;;;28.33;5.55;;;;;;;11.71;93.36;99649.44;4983049;28;20141;-79
2023/11/14 01:10:25;;;;;;;38.33;6.28;;;;;;;11.73;93.09;99658.72;4982354;28;20075;-79
2023/11/14 01:12:52;;;;;;;29.52;5.88;;;;;;;11.70;93.33;99647.81;4983383;28;20051;-80
2023/11/14 01:15:18;;;;;;;33.85;6.70;;;;;;;11.66;93.34;99668.31;4979383;28;20110;-80
2023/11/14 01:17:45;;;;;;;40.63;6.85;;;;;;;11.67;93.43;99664.72;4963294;28;20564;-80
2023/11/14 01:20:12;;;;;;;27.08;7.13;;;;;;;11.71;93.66;99665.16;4964763;28;20091;-80
2023/11/14 01:22:39;;;;;;;28.08;7.00;;;;;;;11.64;93.71;99678.19;4982069;28;20053;-80
2023/11/14 01:25:07;;;;;;;25.55;6.50;;;;;;;11.70;93.79;99668.78;4978965;28;20105;-81
2023/11/14 01:27:36;;;;;;;32.08;7.47;;;;;;;11.71;93.91;99679.06;4981099;28;20143;-81
2023/11/14 01:30:02;;;;;;;33.78;6.22;;;;;;;11.62;94.01;99664.47;4981832;28;20209;-81
2023/11/14 01:32:29;;;;;;;30.00;6.68;;;;;;;11.57;94.34;99659.78;4981209;28;20058;-81
2023/11/14 01:34:56;;;;;;;29.77;7.93;;;;;;;11.64;94.23;99665.09;4982949;28;20133;-80
2023/11/14 01:37:22;;;;;;;23.05;5.75;;;;;;;11.68;94.10;99644.56;4985527;28;20118;-79
2023/11/14 01:39:49;;;;;;;25.13;6.25;;;;;;;11.63;93.98;99659.03;4972708;28;20046;-80
2023/11/14 01:42:15;;;;;;;24.90;6.10;;;;;;;11.61;94.02;99661.03;4977939;28;20070;-80
2023/11/14 01:44:43;;;;;;;26.92;6.68;;;;;;;11.73;94.01;99652.66;4978196;28;20054;-80
2023/11/14 01:47:10;;;;;;;28.10;6.57;;;;;;;11.63;93.97;99664.28;4976874;28;20085;-80
2023/11/14 01:49:37;;;;;;;29.80;6.07;;;;;;;11.54;94.48;99673.25;4978113;28;20505;-80
2023/11/14 01:52:04;;;;;;;28.17;6.18;;;;;;;11.51;94.97;99654.47;4977626;28;20046;-80
2023/11/14 01:54:31;;;;;;;30.00;6.65;;;;;;;11.48;95.17;99658.25;4977138;28;20129;-79
2023/11/14 01:56:59;;;;;;;26.25;6.50;;;;;;;11.59;94.99;99677.94;4977506;28;20081;-79
2023/11/14 01:59:25;;;;;;;32.08;6.18;;;;;;;11.60;94.67;99676.94;4978252;28;20106;-79
2023/11/14 02:01:54;;;;;;;18.02;5.07;;;;;;;11.61;94.66;99684.59;4977733;28;20224;-80
2023/11/14 02:04:22;;;;;;;27.77;5.60;;;;;;;11.62;94.75;99682.78;4976517;28;20101;-80
2023/11/14 02:06:49;;;;;;;23.25;5.85;;;;;;;11.59;94.83;99688.41;4977136;28;20078;-79
2023/11/14 02:09:16;;;;;;;26.75;5.50;;;;;;;11.62;94.52;99680.19;4976450;28;20125;-79
2023/11/14 02:11:43;;;;;;;31.67;7.45;;;;;;;11.58;94.53;99677.13;4976232;28;20113;-81
2023/11/14 02:14:11;;;;;;;25.58;6.45;;;;;;;11.57;94.47;99687.78;4982082;28;20478;-79
2023/11/14 02:16:47;;;;;;;25.33;6.10;;;;;;;11.62;94.27;99688.03;4991294;28;20110;-80
2023/11/14 02:19:15;;;;;;;28.75;6.30;;;;;;;11.61;94.32;99691.66;4991185;28;20054;-79
2023/11/14 02:21:42;;;;;;;23.55;5.72;;;;;;;11.68;94.14;99699.59;4993334;28;20078;-80
2023/11/14 02:24:13;;;;;;;31.48;5.90;;;;;;;11.63;93.78;99690.47;4994433;28;20106;-79
2023/11/14 02:26:42;;;;;;;25.17;6.18;;;;;;;11.61;94.15;99681.97;4984872;28;20058;-79
2023/11/14 02:29:09;;;;;;;25.85;6.70;;;;;;;11.61;94.37;99697.72;4989186;28;20051;-79
2023/11/14 02:31:36;;;;;;;26.25;5.88;;;;;;;11.69;93.79;99701.22;4981015;28;20051;-79
2023/11/14 02:34:02;;;;;;;28.23;6.40;;;;;;;11.60;94.17;99724.91;4990153;28;20086;-79
2023/11/14 02:36:31;;;;;;;28.42;6.18;;;;;;;11.57;94.47;99725.28;4988488;28;20082;-80
2023/11/14 02:38:58;;;;;;;28.10;5.78;;;;;;;11.54;94.75;99738.75;4981994;28;20046;-78
2023/11/14 02:41:25;;;;;;;28.27;6.07;;;;;;;11.59;94.77;99725.91;4987937;28;20105;-81
2023/11/14 02:43:53;;;;;;;27.27;6.07;;;;;;;11.59;94.86;99731.16;4981401;28;20150;-81
2023/11/14 02:46:19;;;;;;;28.10;6.55;;;;;;;11.56;94.97;99733.31;4971111;28;20082;-81
2023/11/14 02:48:46;;;;;;;25.95;5.97;;;;;;;11.59;94.75;99741.63;4979225;28;20086;-81
2023/11/14 02:51:13;;;;;;;27.40;5.93;;;;;;;11.56;95.15;99736.75;4978256;28;20061;-80
2023/11/14 02:53:39;;;;;;;30.55;6.28;;;;;;;11.61;95.08;99744.06;4977690;28;20055;-79
2023/11/14 02:56:06;;;;;;;25.40;6.60;;;;;;;11.59;95.01;99746.88;4977859;28;20549;-80
2023/11/14 02:58:33;;;;;;;28.75;5.82;;;;;;;11.59;95.25;99759.97;4979546;28;20066;-80
2023/11/14 03:01:01;;;;;;;28.45;6.72;;;;;;;11.67;94.75;99737.28;4979864;28;20142;-81
2023/11/14 03:03:27;;;;;;;22.58;5.05;;;;;;;11.76;94.18;99751.91;4977283;28;20053;-80
2023/11/14 03:05:54;;;;;;;25.33;6.72;;;;;;;11.75;94.01;99748.47;4978220;28;20085;-79
2023/11/14 03:08:21;;;;;;;25.75;5.95;;;;;;;11.64;94.40;99748.94;4977974;28;20139;-81
2023/11/14 03:10:48;;;;;;;26.38;5.68;;;;;;;11.60;94.85;99756.34;4978259;28;20477;-82
2023/11/14 03:13:14;;;;;;;30.73;6.55;;;;;;;11.55;94.94;99761.31;4976312;28;20059;-81
2023/11/14 03:15:41;;;;;;;26.33;6.05;;;;;;;11.55;95.01;99758.69;4977077;28;20245;-81
2023/11/14 03:18:09;;;;;;;31.05;6.47;;;;;;;11.50;95.64;99757.63;4969505;28;20051;-81
2023/11/14 03:20:36;;;;;;;21.73;5.72;;;;;;;11.51;95.51;99759.25;4978276;28;20113;-80
2023/11/14 03:23:03;;;;;;;25.00;6.13;;;;;;;11.49;95.53;99761.25;4977460;28;20078;-81
2023/11/14 03:25:30;;;;;;;28.63;5.72;;;;;;;11.51;95.54;99769.72;4977908;28;20141;-81
2023/11/14 03:27:58;;;;;;;30.30;6.53;;;;;;;11.55;95.61;99769.19;4970559;28;20047;-80
2023/11/14 03:30:25;;;;;;;29.45;5.88;;;;;;;11.52;95.85;99774.78;4970632;28;20076;-81
2023/11/14 03:32:51;;;;;;;25.70;5.97;;;;;;;11.52;95.81;99766.94;4977873;28;20113;-80
2023/11/14 03:35:19;;;;;;;33.97;6.50;;;;;;;11.50;96.19;99779.41;4978188;28;20065;-81
2023/11/14 03:37:46;;;;;;;27.13;6.03;;;;;;;11.44;96.60;99774.06;4978764;28;20079;-80
2023/11/14 03:40:13;;;;;;;31.50;6.55;;;;;;;11.45;96.74;99758.16;4979259;28;20054;-82
2023/11/14 03:42:40;;;;;;;25.98;6.80;;;;;;;11.54;96.45;99764.13;4978347;28;20066;-81
2023/11/14 03:45:07;;;;;;;23.65;6.05;;;;;;;11.59;96.12;99749.47;4977458;28;20576;-80
2023/11/14 03:47:34;;;;;;;24.80;5.53;;;;;;;11.60;95.79;99758.16;4978735;28;20556;-81
2023/11/14 03:50:02;;;;;;;23.25;5.65;;;;;;;11.57;95.96;99764.56;4979113;28;20081;-81
2023/11/14 03:52:31;;;;;;;30.08;7.10;;;;;;;11.63;95.67;99748.13;4979944;28;20050;-82
2023/11/14 03:54:58;;;;;;;26.40;5.57;;;;;;;11.69;95.42;99754.44;4984492;28;20462;-80
2023/11/14 03:57:24;;;;;;;32.40;6.55;;;;;;;11.63;95.46;99753.34;4978270;28;20138;-81
2023/11/14 03:59:51;;;;;;;39.88;7.28;;;;;;;11.58;95.55;99750.47;4978140;28;20474;-80
2023/11/14 04:02:17;;;;;;;20.15;5.13;;;;;;;11.59;95.50;99761.78;4976507;28;20050;-81
2023/11/14 04:04:44;;;;;;;24.15;6.07;;;;;;;11.60;96.00;99769.44;4977785;28;20149;-81
2023/11/14 04:07:11;;;;;;;21.40;5.05;;;;;;;11.54;96.06;99774.59;4969936;28;20046;-80
2023/11/14 04:09:41;;;;;;;25.38;5.25;;;;;;;11.64;95.73;99778.56;4977910;28;20081;-81
2023/11/14 04:12:08;;;;;;;28.80;7.50;;;;;;;11.65;95.31;99782.00;4975064;28;20115;-82
2023/11/14 04:14:35;;;;;;;25.38;5.32;;;;;;;11.64;95.40;99770.72;4978415;28;20525;-81
2023/11/14 04:17:03;;;;;;;30.20;7.53;;;;;;;11.68;95.17;99775.59;4978137;28;20115;-81
2023/11/14 04:19:30;;;;;;;19.92;6.15;;;;;;;11.75;95.01;99766.00;4978021;28;20047;-80
2023/11/14 04:21:56;;;;;;;22.33;5.97;;;;;;;11.76;94.35;99759.75;4977224;28;20351;-79
2023/11/14 04:24:24;;;;;;;22.27;5.03;;;;;;;11.82;94.48;99761.66;4977805;28;20054;-81
2023/11/14 04:26:52;;;;;;;15.55;4.95;;;;;;;11.87;94.25;99749.59;4977659;28;20066;-80
2023/11/14 04:29:19;;;;;;;22.77;5.65;;;;;;;11.85;94.23;99746.34;4977586;28;20093;-81
2023/11/14 04:31:45;;;;;;;29.02;5.90;;;;;;;11.86;94.29;99763.72;4976282;28;20141;-80
2023/11/14 04:34:12;;;;;;;26.50;6.03;;;;;;;11.85;94.42;99756.03;4976304;28;20130;-80
2023/11/14 04:36:38;;;;;;;27.63;5.88;;;;;;;11.96;93.94;99763.41;4977742;28;20133;-79
2023/11/14 04:39:05;;;;;;;22.33;5.57;;;;;;;11.96;94.08;99764.22;4977003;28;20061;-80
2023/11/14 04:41:32;;;;;;;23.90;5.53;;;;;;;11.96;94.21;99755.56;4978072;28;20110;-81
2023/11/14 04:43:59;;;;;;;26.15;6.10;;;;;;;11.99;94.19;99763.03;4978054;28;20130;-80
2023/11/14 04:46:27;;;;;;;28.35;6.45;;;;;;;11.98;94.16;99752.75;4978068;28;20138;-81
2023/11/14 04:48:54;;;;;;;28.65;5.32;;;;;;;11.95;94.36;99764.41;4977777;28;20065;-80
2023/11/14 04:51:20;;;;;;;28.48;5.78;;;;;;;11.92;94.70;99762.16;4976362;28;20050;-79
2023/11/14 04:53:47;;;;;;;23.42;5.93;;;;;;;11.89;94.91;99765.97;4977304;28;20540;-80
2023/11/14 04:56:15;;;;;;;23.85;5.95;;;;;;;11.87;95.35;99760.09;4977664;28;20094;-80
2023/11/14 04:58:41;;;;;;;28.25;5.53;;;;;;;11.83;95.72;99750.97;4977857;28;20051;-79
2023/11/14 05:01:11;;;;;;;20.60;5.65;;;;;;;11.85;95.65;99775.19;4980048;28;20114;-80
2023/11/14 05:03:37;;;;;;;24.42;6.25;;;;;;;11.93;94.92;99758.53;4980361;28;20449;-80
2023/11/14 05:06:04;;;;;;;23.38;6.15;;;;;;;11.92;95.26;99764.78;4981459;28;20089;-80
2023/11/14 05:08:31;;;;;;;27.75;6.15;;;;;;;11.94;95.31;99749.69;4980846;28;20580;-81
2023/11/14 05:10:58;;;;;;;28.33;7.28;;;;;;;11.88;95.44;99753.03;4980819;28;20085;-79
2023/11/14 05:13:24;;;;;;;26.60;6.22;;;;;;;11.95;95.45;99761.78;4980496;28;20082;-80
2023/11/14 05:15:51;;;;;;;26.77;5.68;;;;;;;11.94;95.65;99765.41;4980225;28;20228;-79
2023/11/14 05:18:21;;;;;;;26.63;6.60;;;;;;;11.94;95.86;99762.78;4980346;28;20082;-81
2023/11/14 05:20:48;;;;;;;26.67;5.70;;;;;;;11.93;95.96;99784.75;4979895;28;20385;-81
2023/11/14 05:23:15;;;;;;;26.98;6.18;;;;;;;12.02;95.73;99764.50;4971992;28;20106;-81
2023/11/14 05:25:42;;;;;;;28.75;7.20;;;;;;;12.02;95.46;99778.41;4980778;28;20046;-81
2023/11/14 05:28:09;;;;;;;29.20;6.63;;;;;;;12.03;95.65;99780.03;4980463;28;20065;-81
2023/11/14 05:30:36;;;;;;;24.88;5.82;;;;;;;12.02;95.57;99778.41;4980692;28;20134;-80
2023/11/14 05:33:03;;;;;;;25.65;5.50;;;;;;;12.04;95.46;99792.16;4979062;28;20097;-79
2023/11/14 05:35:31;;;;;;;16.60;4.65;;;;;;;11.93;95.70;99801.31;4979647;28;20050;-81
2023/11/14 05:37:58;;;;;;;31.35;5.75;;;;;;;11.89;95.85;99783.50;4979631;28;20046;-78
2023/11/14 05:40:25;;;;;;;27.38;6.03;;;;;;;11.88;96.00;99800.22;4981133;28;20051;-80
2023/11/14 05:42:51;;;;;;;26.98;5.82;;;;;;;11.89;95.92;99809.72;4979434;28;20444;-81
2023/11/14 05:45:18;;;;;;;26.88;5.95;;;;;;;11.87;96.00;99809.09;4979405;28;20058;-80
2023/11/14 05:47:45;;;;;;;25.27;5.65;;;;;;;11.90;96.12;99808.72;4978659;28;20139;-81
2023/11/14 05:50:11;;;;;;;24.70;5.60;;;;;;;11.81;96.27;99802.00;4978994;28;20082;-81
2023/11/14 05:52:39;;;;;;;23.48;6.97;;;;;;;11.87;96.30;99801.22;4978518;28;20074;-80
2023/11/14 05:55:08;;;;;;;30.00;6.07;;;;;;;11.88;96.03;99792.38;4979529;28;20085;-80
2023/11/14 05:57:34;;;;;;;20.58;5.80;;;;;;;11.89;95.78;99788.75;4978824;28;20110;-80
2023/11/14 06:00:02;;;;;;;23.10;6.13;;;;;;;11.87;95.93;99801.22;4979668;28;20174;-80
2023/11/14 06:02:29;;;;;;;20.95;6.35;;;;;;;11.78;96.28;99808.41;4979970;28;20520;-82
2023/11/14 06:04:55;;;;;;;22.35;5.70;;;;;;;11.84;96.25;99806.84;4980571;28;20134;-81
2023/11/14 06:07:22;;;;;;;20.73;5.93;;;;;;;11.78;96.60;99812.84;4977174;28;20129;-80
2023/11/14 06:09:50;;;;;;;30.08;7.30;;;;;;;11.73;96.47;99804.69;4979633;28;20114;-81
2023/11/14 06:12:17;;;;;;;26.10;6.65;;;;;;;11.72;96.80;99813.53;4983321;28;20138;-81
2023/11/14 06:14:43;;;;;;;27.23;5.88;;;;;;;11.85;96.13;99793.53;4972673;28;20096;-81
2023/11/14 06:17:13;;;;;;;32.00;7.32;;;;;;;11.81;96.52;99788.88;4975901;28;20086;-81
2023/11/14 06:19:40;;;;;;;32.40;6.65;;;;;;;11.71;96.54;99807.47;4977606;28;20047;-79
2023/11/14 06:22:07;;;;;;;26.00;5.28;;;;;;;11.76;96.67;99784.16;4975837;28;20524;-80
2023/11/14 06:24:34;;;;;;;26.13;6.47;;;;;;;11.81;96.14;99830.81;4977462;28;20137;-80
2023/11/14 06:27:02;;;;;;;22.85;6.20;;;;;;;11.84;96.27;99827.81;4976309;28;20051;-79
2023/11/14 06:29:28;;;;;;;31.42;6.43;;;;;;;11.82;96.23;99804.41;4975662;28;20508;-80
2023/11/14 06:31:55;;;;;;;20.58;5.53;;;;;;;11.78;96.51;99803.16;4969855;28;20093;-80
2023/11/14 06:34:22;;;;;;;24.02;5.60;;;;;;;11.73;96.68;99807.31;4975525;28;20564;-80
2023/11/14 06:36:49;;;;;;;23.15;6.60;;;;;;;11.77;96.45;99790.25;4976494;28;20480;-80
2023/11/14 06:39:16;;;;;;;26.73;6.13;;;;;;;11.84;96.21;99817.31;4977088;28;20115;-79
2023/11/14 06:41:48;;;;;;;27.35;6.15;;;;;;;11.86;96.18;99828.44;4978784;28;20449;-79
2023/11/14 06:44:17;;;;;;;22.10;5.20;;;;;;;11.84;96.10;99833.03;4979301;28;20441;-80
2023/11/14 06:46:43;;;;;;;26.85;6.78;;;;;;;11.76;96.19;99805.13;4977152;28;20294;-79
2023/11/14 06:49:10;;;;;;;22.38;6.28;;;;;;;11.74;96.28;99811.53;4973714;28;20122;-80
2023/11/14 06:51:37;;;;;;;23.40;5.82;;;;;;;11.76;96.19;99815.59;4977529;28;20150;-80
2023/11/14 06:54:04;;;;;;;25.10;5.82;;;;;;;11.84;95.72;99820.75;4977344;28;20110;-80
2023/11/14 06:56:31;;;;;;;26.92;6.35;;;;;;;11.81;95.58;99792.31;4976649;28;20057;-80
2023/11/14 06:58:57;;;;;;;19.90;5.25;;;;;;;11.92;95.12;99814.59;4974007;28;20107;-79
2023/11/14 07:01:25;;;;;;;16.67;5.72;;;;;;;11.92;94.70;99796.25;4968686;28;20137;-80
2023/11/14 07:03:52;;;;;;;25.73;5.28;;;;;;;11.95;94.45;99799.31;4977124;28;20046;-80
2023/11/14 07:06:19;;;;;;;28.15;6.28;;;;;;;11.99;94.32;99789.25;4977282;28;20533;-80
2023/11/14 07:08:46;;;;;;;24.85;6.72;;;;;;;12.00;94.37;99808.44;4979504;28;20046;-81
2023/11/14 07:11:12;;;;;;;23.63;5.57;;;;;;;11.95;94.35;99814.22;4977536;28;20433;-80
2023/11/14 07:13:40;;;;;;;24.63;6.40;;;;;;;11.92;94.93;99839.00;4971731;28;20078;-81
2023/11/14 07:16:09;;;;;;;26.98;5.47;;;;;;;12.00;94.77;99873.97;4975642;28;20556;-81
2023/11/14 07:18:37;;;;;;;21.88;5.53;;;;;;;12.01;94.86;99868.56;4978770;28;20405;-81
2023/11/14 07:21:04;;;;;;;25.15;6.25;;;;;;;12.03;94.87;99868.38;4977153;28;20109;-81
2023/11/14 07:23:31;;;;;;;28.05;6.28;;;;;;;12.08;94.84;99858.16;4975625;28;20047;-81
2023/11/14 07:26:03;;;;;;;22.48;6.10;;;;;;;12.09;95.26;99857.16;4980020;28;20055;-82
2023/11/14 07:28:30;;;;;;;29.10;6.00;;;;;;;12.11;95.33;99849.91;4982295;28;20077;-82
2023/11/14 07:30:56;;;;;;;22.92;6.35;;;;;;;12.06;95.51;99850.47;4975558;28;20164;-83
2023/11/14 07:33:23;;;;;;;22.70;6.78;;;;;;;12.06;95.94;99837.34;4977895;28;20068;-80
2023/11/14 07:35:51;;;;;;;31.33;5.38;;;;;;;12.08;96.25;99860.78;4978153;28;20465;-82
2023/11/14 07:38:18;;;;;;;24.38;5.97;;;;;;;12.11;96.26;99845.47;4976490;28;20505;-81
2023/11/14 07:40:44;;;;;;;22.48;5.43;;;;;;;12.09;96.50;99844.84;4975868;28;20051;-80
2023/11/14 07:43:11;;;;;;;26.58;6.47;;;;;;;12.12;96.41;99839.25;4967298;28;20130;-78
2023/11/14 07:45:37;;;;;;;28.13;7.20;;;;;;;12.10;96.46;99828.13;4976751;28;20057;-78
2023/11/14 07:48:06;;;;;;;21.48;5.40;;;;;;;12.12;96.64;99847.09;4975840;28;20055;-82
2023/11/14 07:50:33;;;;;;;29.75;6.82;;;;;;;12.04;96.91;99849.84;4968754;28;20047;-81
2023/11/14 07:53:01;;;;;;;27.50;8.45;;;;;;;12.02;97.40;99851.81;4974005;28;20047;-81
2023/11/14 07:55:27;;;;;;;24.13;5.85;;;;;;;12.09;97.39;99857.16;4971858;28;20145;-81
2023/11/14 07:57:54;;;;;;;21.90;5.78;;;;;;;12.10;97.43;99843.84;4977753;28;20103;-81
2023/11/14 08:00:21;;;;;;;22.25;5.30;;;;;;;12.16;97.70;99842.31;4978104;28;20429;-81
2023/11/14 08:02:47;;;;;;;28.67;5.72;;;;;;;12.21;97.35;99840.75;4976467;28;20146;-81
2023/11/14 08:05:14;;;;;;;19.20;5.97;;;;;;;12.25;97.10;99822.84;4977993;28;20184;-80
2023/11/14 08:07:41;;;;;;;25.15;5.53;;;;;;;12.32;97.07;99810.56;4971896;28;20085;-78
2023/11/14 08:10:09;;;;;;;29.90;5.97;;;;;;;12.28;96.86;99815.41;4975771;28;20090;-78
2023/11/14 08:12:36;;;;;;;21.45;5.72;;;;;;;12.38;96.80;99820.31;4976854;28;20059;-79
2023/11/14 08:15:04;;;;;;;23.35;5.57;;;;;;;12.44;96.51;99818.75;4971367;28;20050;-79
2023/11/14 08:17:30;;;;;;;23.08;5.30;;;;;;;12.48;96.16;99820.00;4976630;28;20498;-78
2023/11/14 08:20:00;;;;;;;23.50;5.85;;;;;;;12.50;96.28;99818.03;4977001;28;20050;-78
2023/11/14 08:22:27;;;;;;;25.30;5.85;;;;;;;12.53;96.07;99817.66;4975992;28;20155;-79
2023/11/14 08:24:54;;;;;;;16.85;5.15;;;;;;;12.55;95.96;99828.75;4976270;28;20078;-79
2023/11/14 08:27:21;;;;;;;25.35;5.35;;;;;;;12.60;96.34;99840.31;4977411;28;20447;-78
2023/11/14 08:29:48;;;;;;;22.67;5.47;;;;;;;12.52;96.20;99837.00;4976832;28;20146;-78
2023/11/14 08:32:16;;;;;;;25.02;5.75;;;;;;;12.39;96.53;99839.50;4975998;28;20051;-79
2023/11/14 08:34:42;;;;;;;22.95;6.88;;;;;;;12.50;96.82;99836.38;4977725;28;20074;-78
2023/11/14 08:37:09;;;;;;;19.63;5.57;;;;;;;12.49;96.58;99826.88;4975381;28;20066;-79
2023/11/14 08:39:36;;;;;;;23.40;5.38;;;;;;;12.54;96.43;99830.56;4980566;28;20087;-80
2023/11/14 08:42:02;;;;;;;19.40;5.43;;;;;;;12.49;96.59;99834.75;4980801;28;20510;-79
2023/11/14 08:44:30;;;;;;;24.08;5.43;;;;;;;12.53;96.89;99838.63;4980619;28;20082;-80
2023/11/14 08:46:57;;;;;;;21.73;5.80;;;;;;;12.43;97.23;99832.88;4983248;28;20188;-78
2023/11/14 08:49:23;;;;;;;21.13;5.15;;;;;;;12.55;97.28;99831.38;4969690;28;20081;-80
2023/11/14 08:51:50;;;;;;;20.75;4.85;;;;;;;12.67;96.95;99832.50;4978652;28;20046;-79
2023/11/14 08:54:17;;;;;;;22.58;5.18;;;;;;;12.65;96.96;99836.31;4980560;28;20082;-79
2023/11/14 08:56:44;;;;;;;17.10;5.05;;;;;;;12.65;97.31;99833.69;4981105;28;20055;-79
2023/11/14 08:59:12;;;;;;;17.77;4.88;;;;;;;12.65;97.84;99837.13;4979965;28;20061;-79
2023/11/14 09:01:40;;;;;;;18.05;5.10;;;;;;;12.50;99.32;99847.69;4975380;28;20083;-79
2023/11/14 09:04:10;;;;;;;18.63;4.60;;;;;;;12.39;100.00;99863.13;4972178;28;20134;-80
2023/11/14 09:06:36;;;;;;;29.20;5.70;;;;;;;12.51;100.00;99864.25;4980228;28;20097;-79
2023/11/14 09:09:03;;;;;;;20.45;4.70;;;;;;;12.56;100.00;99875.00;4980216;28;20137;-79
2023/11/14 09:11:30;;;;;;;20.40;5.05;;;;;;;12.66;99.07;99870.25;4980737;28;20135;-79
2023/11/14 09:13:58;;;;;;;22.80;5.40;;;;;;;12.76;98.42;99875.97;4979960;28;20072;-79
2023/11/14 09:16:25;;;;;;;24.00;5.20;;;;;;;12.79;97.87;99862.47;4972141;28;20058;-80
2023/11/14 09:18:53;;;;;;;21.92;5.30;;;;;;;12.84;97.03;99836.47;4980017;28;20545;-80
2023/11/14 09:21:20;;;;;;;19.33;5.15;;;;;;;12.93;96.58;99829.28;4982046;28;20066;-78
2023/11/14 09:23:47;;;;;;;18.35;5.05;;;;;;;12.91;96.14;99826.84;4983997;28;20077;-79
2023/11/14 09:26:14;;;;;;;25.38;5.93;;;;;;;12.98;96.01;99836.59;4980344;28;20083;-80
2023/11/14 09:28:41;;;;;;;17.80;5.90;;;;;;;12.89;95.61;99828.03;4980421;28;20077;-79
2023/11/14 09:31:08;;;;;;;21.13;4.93;;;;;;;12.88;95.21;99837.72;4979825;28;20576;-79
2023/11/14 09:33:35;;;;;;;24.45;5.60;;;;;;;12.95;94.99;99825.47;4979257;28;20043;-79
2023/11/14 09:36:04;;;;;;;18.17;5.07;;;;;;;12.98;95.08;99824.28;4979406;28;20046;-79
2023/11/14 09:38:32;;;;;;;21.05;5.03;;;;;;;13.00;95.15;99831.97;4979528;28;20077;-79
2023/11/14 09:40:59;;;;;;;22.75;5.95;;;;;;;12.93;95.26;99834.53;4978592;28;20054;-78
2023/11/14 09:43:26;;;;;;;24.92;5.00;;;;;;;12.95;94.74;99859.59;4979846;28;20055;-79
2023/11/14 09:45:53;;;;;;;19.63;5.63;;;;;;;12.94;94.91;99878.97;4980764;28;20141;-80
2023/11/14 09:48:21;;;;;;;17.15;4.78;;;;;;;13.06;95.00;99875.84;4980599;28;20053;-80
2023/11/14 09:50:48;;;;;;;20.15;5.20;;;;;;;13.01;95.27;99878.22;4972473;28;20054;-80
2023/11/14 09:53:16;;;;;;;22.55;5.22;;;;;;;12.99;95.60;99893.34;4979774;28;20509;-79
2023/11/14 09:55:45;;;;;;;18.75;4.60;;;;;;;12.96;95.30;99892.72;4980023;28;20055;-79
2023/11/14 09:58:12;;;;;;;18.70;5.80;;;;;;;12.89;95.56;99891.03;4971808;28;20093;-79
2023/11/14 10:00:38;;;;;;;14.23;4.70;;;;;;;12.95;95.60;99891.09;4980263;28;20128;-79
2023/11/14 10:03:05;;;;;;;16.98;5.47;;;;;;;13.03;95.81;99881.47;4979561;28;20110;-79
2023/11/14 10:05:31;;;;;;;22.77;4.85;;;;;;;12.93;95.98;99898.34;4980136;28;20054;-80
2023/11/14 10:07:59;;;;;;;20.65;4.63;;;;;;;12.99;95.88;99891.53;4971269;28;20082;-79
2023/11/14 10:10:28;;;;;;;15.93;4.55;;;;;;;13.03;95.61;99891.97;4971019;28;20054;-80
2023/11/14 10:12:55;;;;;;;19.33;3.90;;;;;;;13.06;95.58;99881.09;4979248;28;20058;-80
2023/11/14 10:15:29;;;;;;;13.80;4.38;;;;;;;13.20;95.55;99867.91;4981445;28;20050;-79
2023/11/14 10:17:56;;;;;;;13.43;4.43;;;;;;;13.26;95.15;99861.06;4979687;28;20051;-79
2023/11/14 10:20:23;;;;;;;15.13;5.18;;;;;;;13.22;95.03;99865.91;4979521;28;20050;-79
2023/11/14 10:22:50;;;;;;;16.75;4.93;;;;;;;13.21;94.95;99858.22;4979133;28;20078;-79
2023/11/14 10:25:29;;;;;;;13.68;4.25;;;;;;;13.27;95.30;99852.97;4979727;28;20114;-79
2023/11/14 10:27:59;;;;;;;15.90;4.10;;;;;;;13.17;95.24;99836.78;4979125;28;20428;-79
2023/11/14 10:30:27;;;;;;;19.17;4.60;;;;;;;13.16;95.69;99850.91;4979291;28;20110;-79
2023/11/14 10:32:54;;;;;;;13.68;4.57;;;;;;;13.14;95.78;99850.25;4979312;28;20074;-79
2023/11/14 10:35:22;;;;;;;13.38;4.13;;;;;;;13.16;95.63;99850.09;4970924;28;20089;-79
2023/11/14 10:37:49;;;;;;;15.50;4.35;;;;;;;13.07;95.83;99848.56;4978707;28;20484;-79
2023/11/14 10:40:15;;;;;;;14.88;4.32;;;;;;;13.11;96.38;99853.25;4978864;28;20082;-79
2023/11/14 10:42:52;;;;;;;19.63;5.93;;;;;;;13.04;97.74;99864.72;4977634;28;20147;-78
2023/11/14 10:45:19;;;;;;;16.17;4.95;;;;;;;12.81;99.33;99854.41;4979132;28;20078;-79
2023/11/14 10:47:46;;;;;;;19.85;4.70;;;;;;;12.77;100.00;99864.47;4979591;28;20133;-80
2023/11/14 10:50:26;;;;;;;16.35;6.18;;;;;;;12.60;100.00;99860.50;4977140;28;20065;-79
2023/11/14 10:52:53;;;;;;;15.15;4.53;;;;;;;12.53;100.00;99863.06;4974884;28;20460;-79
2023/11/14 10:55:21;;;;;;;18.20;4.70;;;;;;;12.55;100.00;99868.94;4978496;28;20103;-79
2023/11/14 10:57:50;;;;;;;16.23;4.00;;;;;;;12.56;100.00;99861.88;4977398;28;20494;-79
2023/11/14 11:00:20;;;;;;;15.43;4.70;;;;;;;12.54;100.00;99842.88;4978015;28;20055;-79
2023/11/14 11:02:50;;;;;;;17.10;5.50;;;;;;;12.65;100.00;99846.81;4978150;28;20477;-79
2023/11/14 11:05:17;;;;;;;16.88;4.57;;;;;;;12.76;100.00;99833.19;4978506;28;20473;-78
2023/11/14 11:07:44;;;;;;;18.63;4.32;;;;;;;12.62;100.00;99825.19;4978564;28;20058;-79
2023/11/14 11:10:12;;;;;;;17.38;5.00;;;;;;;12.78;100.00;99837.22;4978528;28;20133;-79
2023/11/14 11:12:40;;;;;;;17.00;5.07;;;;;;;12.96;100.00;99827.09;4977960;28;20093;-78
2023/11/14 11:15:10;;;;;;;13.23;4.30;;;;;;;13.09;100.00;99829.00;4978198;28;20104;-80
2023/11/14 11:17:40;;;;;;;16.48;4.43;;;;;;;13.20;99.76;99822.44;4978393;28;20060;-80
2023/11/14 11:20:09;;;;;;;11.05;4.38;;;;;;;13.29;98.61;99806.31;4978196;28;20058;-79
2023/11/14 11:23:04;;;;;;;14.23;4.40;;;;;;;13.35;97.89;99796.03;4970401;28;20070;-79
2023/11/14 11:25:31;;;;;;;14.23;3.90;;;;;;;13.20;97.70;99798.78;4973832;28;20081;-79